< Cyclone 195404 1954 Season Cyclone 195406 >
Cyclone 195405 (unnamed)
General InformationTrack Information on Google Maps || ResourceGoogle EarthGE AnimationAtom FeedGeoJSON
Detalied Best Track (Time Zone = UTC)
Year Month Day Hour Lat. Long. Pressure (hPa) Wind (kt) Class Image Chart
1954 1 25 00 -15.8 163.8 -1 0 0 -- --
1954 1 25 06 -16.3 164.4 -1 0 0 -- --
1954 1 25 12 -16.9 164.8 -1 0 0 -- --
1954 1 25 18 -17.5 165.1 -1 0 0 -- --
1954 1 26 00 -18.1 165.1 -1 0 0 -- --
1954 1 26 06 -18.6 164.7 -1 0 0 -- --
1954 1 26 12 -18.9 164.2 -1 0 0 -- --
1954 1 26 18 -19.0 163.6 -1 0 0 -- --
1954 1 27 00 -19.2 163.2 -1 0 0 -- --
1954 1 27 06 -20.1 163.1 -1 0 0 -- --
1954 1 27 12 -21.2 163.0 -1 0 0 -- --
1954 1 27 18 -21.9 162.9 -1 0 0 -- --
1954 1 28 00 -22.6 162.8 -1 0 0 -- --
1954 1 28 06 -23.7 162.2 -1 0 0 -- --
1954 1 28 12 -24.9 161.3 -1 0 0 -- --
1954 1 28 18 -25.5 160.4 -1 0 0 -- --
1954 1 29 00 -26.2 159.6 -1 0 0 -- --
1954 1 29 06 -27.3 159.1 -1 0 0 -- --
1954 1 29 12 -28.4 159.0 -1 0 0 -- --
1954 1 29 18 -29.2 159.0 -1 0 0 -- --
1954 1 30 00 -30.2 159.5 -1 0 0 -- --
1954 1 30 06 -31.5 160.3 -1 0 0 -- --
1954 1 30 12 -32.9 161.2 -1 0 0 -- --
1954 1 30 18 -34.2 162.0 -1 0 0 -- --
1954 1 31 00 -35.6 162.9 -1 0 0 -- --
< Cyclone 195404 1954 Season Cyclone 195406 >

Help